Time;durP1;ratioP1;P1;durP2;ratioP2;P2;SDS_P1;SDS_P2;PMS_P1;PMS_P2;Temp;Humidity;BMP_temperature;BMP_pressure;BME280_temperature;BME280_humidity;BME280_pressure;Samples;Min_cycle;Max_cycle;Signal;HPM_P1;HPM_P2
2024/04/01 00:00:39;;;;;;;49.40;7.40;;;15.30;99.90;;;;;;4950924;29;20055;-76
2024/04/01 00:03:05;;;;;;;48.50;9.25;;;15.20;99.90;;;;;;4951799;29;20043;-76
2024/04/01 00:05:31;;;;;;;58.80;9.35;;;15.20;99.90;;;;;;4951165;29;20030;-77
2024/04/01 00:07:57;;;;;;;59.95;8.50;;;15.20;99.90;;;;;;4951645;29;20102;-77
2024/04/01 00:10:26;;;;;;;49.95;8.23;;;15.30;99.90;;;;;;4951222;29;20107;-76
2024/04/01 00:12:57;;;;;;;51.45;7.50;;;15.30;99.90;;;;;;4949988;29;20126;-76
2024/04/01 00:15:23;;;;;;;53.00;9.90;;;15.30;99.90;;;;;;4950374;29;20119;-77
2024/04/01 00:17:49;;;;;;;58.33;7.43;;;15.30;99.90;;;;;;4953217;28;20492;-77
2024/04/01 00:20:15;;;;;;;53.33;9.30;;;15.20;99.90;;;;;;4953201;28;20028;-77
2024/04/01 00:22:40;;;;;;;50.55;9.00;;;15.20;99.90;;;;;;4952473;29;20028;-77
2024/04/01 00:25:06;;;;;;;53.80;9.45;;;15.20;99.90;;;;;;4951863;29;20483;-77
2024/04/01 00:27:34;;;;;;;60.05;9.43;;;15.20;99.90;;;;;;4952721;29;20483;-77
2024/04/01 00:30:00;;;;;;;52.80;9.50;;;15.30;99.90;;;;;;4952617;29;20046;-77
2024/04/01 00:32:25;;;;;;;52.13;8.25;;;15.30;99.90;;;;;;4950322;29;20040;-77
2024/04/01 00:34:51;;;;;;;47.78;8.75;;;15.40;99.90;;;;;;4952085;29;20031;-77
2024/04/01 00:37:17;;;;;;;50.13;7.85;;;15.30;99.90;;;;;;4951809;29;20031;-77
2024/04/01 00:39:43;;;;;;;43.55;8.40;;;15.40;99.90;;;;;;4952080;29;20388;-77
2024/04/01 00:42:08;;;;;;;60.58;8.95;;;15.40;99.90;;;;;;4952192;29;20380;-77
2024/04/01 00:44:34;;;;;;;61.60;9.82;;;15.40;99.90;;;;;;4952027;29;20114;-77
2024/04/01 00:47:00;;;;;;;46.97;7.80;;;15.40;99.90;;;;;;4950486;29;20392;-77
2024/04/01 00:49:26;;;;;;;59.17;9.25;;;15.40;99.90;;;;;;4952104;29;20037;-77
2024/04/01 00:51:53;;;;;;;57.33;8.45;;;15.40;99.90;;;;;;4951561;29;20035;-77
2024/04/01 00:54:19;;;;;;;62.13;9.73;;;15.40;99.90;;;;;;4950671;29;20228;-77
2024/04/01 00:56:47;;;;;;;61.58;9.32;;;15.40;99.90;;;;;;4950447;29;20114;-77
2024/04/01 00:59:15;;;;;;;65.28;10.30;;;15.30;99.90;;;;;;4952086;29;20398;-77
2024/04/01 01:01:44;;;;;;;55.70;8.57;;;15.30;99.90;;;;;;4952105;29;20085;-77
2024/04/01 01:04:11;;;;;;;48.33;8.52;;;15.30;99.90;;;;;;4951735;29;20055;-77
2024/04/01 01:06:38;;;;;;;57.53;9.02;;;15.30;99.90;;;;;;4951663;29;20503;-77
2024/04/01 01:09:05;;;;;;;48.83;7.95;;;15.30;99.90;;;;;;4950281;29;20042;-77
2024/04/01 01:11:31;;;;;;;52.65;9.02;;;15.30;99.90;;;;;;4951347;29;20085;-77
2024/04/01 01:14:01;;;;;;;52.85;9.35;;;15.30;99.90;;;;;;4950465;29;20626;-77
2024/04/01 01:16:27;;;;;;;71.15;10.43;;;15.30;99.90;;;;;;4948704;28;20034;-77
2024/04/01 01:18:53;;;;;;;57.47;8.65;;;15.30;99.90;;;;;;4934573;29;20024;-77
2024/04/01 01:21:22;;;;;;;64.90;9.43;;;15.30;99.90;;;;;;4950448;29;20556;-76
2024/04/01 01:23:48;;;;;;;48.47;9.20;;;15.40;99.90;;;;;;4949817;29;20055;-77
2024/04/01 01:26:14;;;;;;;47.15;9.40;;;15.40;99.90;;;;;;4951866;28;20054;-77
2024/04/01 01:28:40;;;;;;;52.47;9.10;;;15.50;99.90;;;;;;4951619;29;20066;-76
2024/04/01 01:31:06;;;;;;;52.35;9.77;;;15.60;99.90;;;;;;4904357;29;1399781;-77
2024/04/01 01:33:32;;;;;;;61.45;9.27;;;15.50;99.90;;;;;;4952413;29;20066;-77
2024/04/01 01:35:59;;;;;;;63.45;9.32;;;15.50;99.90;;;;;;4952477;29;20488;-77
2024/04/01 01:38:25;;;;;;;87.00;10.45;;;15.50;99.90;;;;;;4952393;29;20015;-77
2024/04/01 01:40:52;;;;;;;60.83;8.57;;;15.50;99.90;;;;;;4934872;29;20064;-77
2024/04/01 01:43:18;;;;;;;49.17;9.43;;;15.50;99.90;;;;;;4952317;29;20019;-76
2024/04/01 01:45:43;;;;;;;48.17;9.40;;;15.50;99.90;;;;;;4934666;29;20027;-77
2024/04/01 01:48:09;;;;;;;45.60;9.45;;;15.50;99.90;;;;;;4952179;29;20046;-77
2024/04/01 01:50:34;;;;;;;63.70;11.65;;;15.50;99.90;;;;;;4951804;29;20028;-77
2024/04/01 01:53:00;;;;;;;65.35;9.45;;;15.50;99.90;;;;;;4951678;29;20740;-77
2024/04/01 01:55:26;;;;;;;58.58;9.98;;;15.50;99.90;;;;;;4950870;29;20435;-77
2024/04/01 01:57:52;;;;;;;65.22;11.18;;;15.50;99.90;;;;;;4951923;29;20027;-77
2024/04/01 02:00:17;;;;;;;71.53;11.00;;;15.50;99.90;;;;;;4952175;29;20074;-77
2024/04/01 02:02:43;;;;;;;63.65;9.80;;;15.40;99.90;;;;;;4952363;29;20035;-77
2024/04/01 02:05:10;;;;;;;63.85;9.80;;;15.50;99.90;;;;;;4950722;29;20034;-76
2024/04/01 02:07:36;;;;;;;67.82;10.45;;;15.40;99.90;;;;;;4950302;29;20436;-76
2024/04/01 02:10:03;;;;;;;57.28;10.32;;;15.40;99.90;;;;;;4951995;28;20020;-77
2024/04/01 02:12:29;;;;;;;54.92;8.75;;;15.40;99.90;;;;;;4950548;29;20035;-77
2024/04/01 02:14:54;;;;;;;63.30;10.25;;;15.30;99.90;;;;;;4950930;29;20020;-76
2024/04/01 02:17:20;;;;;;;68.82;10.23;;;15.30;99.90;;;;;;4951590;29;20128;-76
2024/04/01 02:19:46;;;;;;;51.38;8.90;;;15.30;99.90;;;;;;4952017;28;20091;-76
2024/04/01 02:22:13;;;;;;;53.50;10.38;;;15.30;99.90;;;;;;4954908;29;20483;-77
2024/04/01 02:24:43;;;;;;;57.70;9.65;;;15.20;99.90;;;;;;4955408;29;20023;-77
2024/04/01 02:27:09;;;;;;;60.80;10.40;;;15.20;99.90;;;;;;4955413;29;20030;-77
2024/04/01 02:29:36;;;;;;;68.60;10.20;;;15.20;99.90;;;;;;4953011;29;20399;-77
2024/04/01 02:32:01;;;;;;;55.15;10.13;;;15.20;99.90;;;;;;4955261;29;20057;-77
2024/04/01 02:34:27;;;;;;;52.20;8.93;;;15.10;99.90;;;;;;4955346;28;20098;-77
2024/04/01 02:36:54;;;;;;;58.10;9.95;;;15.10;99.90;;;;;;4955191;29;20027;-77
2024/04/01 02:39:23;;;;;;;67.63;10.18;;;15.10;99.90;;;;;;4955085;29;20023;-76
2024/04/01 02:41:50;;;;;;;69.28;10.15;;;15.10;99.90;;;;;;4954671;29;20023;-76
2024/04/01 02:44:16;;;;;;;73.95;11.52;;;15.10;99.90;;;;;;4955086;29;20031;-77
2024/04/01 02:46:43;;;;;;;59.05;10.98;;;15.20;99.90;;;;;;4953434;29;20427;-76
2024/04/01 02:49:09;;;;;;;66.22;10.35;;;15.20;99.90;;;;;;4954785;28;20479;-76
2024/04/01 02:51:35;;;;;;;88.20;12.07;;;15.20;99.90;;;;;;4953618;28;20506;-77
2024/04/01 02:54:01;;;;;;;71.78;10.88;;;15.20;99.90;;;;;;4954922;29;20028;-76
2024/04/01 02:56:27;;;;;;;55.33;9.93;;;15.10;99.90;;;;;;4955080;29;20023;-76
2024/04/01 02:58:53;;;;;;;63.45;10.38;;;15.20;99.90;;;;;;4955082;29;20078;-77
2024/04/01 03:01:18;;;;;;;65.65;11.30;;;15.10;99.90;;;;;;4937775;29;20031;-76
2024/04/01 03:03:48;;;;;;;61.67;10.90;;;15.10;99.90;;;;;;4955868;28;20035;-76
2024/04/01 03:06:14;;;;;;;68.32;11.35;;;15.10;99.90;;;;;;4955042;29;20059;-77
2024/04/01 03:08:41;;;;;;;68.00;11.18;;;15.10;99.90;;;;;;4956136;29;20034;-76
2024/04/01 03:11:06;;;;;;;54.83;10.15;;;15.10;99.90;;;;;;4954718;29;20038;-76
2024/04/01 03:13:32;;;;;;;59.10;10.32;;;15.10;99.90;;;;;;4956112;29;20373;-77
2024/04/01 03:15:58;;;;;;;70.75;11.45;;;15.10;99.90;;;;;;4951167;29;20034;-76
2024/04/01 03:18:25;;;;;;;55.00;10.15;;;15.10;99.90;;;;;;4956061;28;20061;-76
2024/04/01 03:20:52;;;;;;;70.38;10.68;;;15.00;99.90;;;;;;4954967;29;20031;-76
2024/04/01 03:23:18;;;;;;;57.70;10.13;;;15.00;99.90;;;;;;4954889;28;20015;-76
2024/04/01 03:25:52;;;;;;;60.67;11.10;;;15.00;99.90;;;;;;4953179;29;20027;-76
2024/04/01 03:28:18;;;;;;;59.03;9.07;;;15.00;99.90;;;;;;4954643;28;20114;-76
2024/04/01 03:30:47;;;;;;;61.67;11.52;;;14.90;99.90;;;;;;4954398;29;20118;-76
2024/04/01 03:33:15;;;;;;;51.58;8.75;;;14.80;99.90;;;;;;4953614;28;20097;-76
2024/04/01 03:35:40;;;;;;;63.53;10.43;;;14.80;99.90;;;;;;4954501;29;20030;-76
2024/04/01 03:38:07;;;;;;;64.53;9.63;;;14.70;99.90;;;;;;4954395;29;20027;-76
2024/04/01 03:40:36;;;;;;;67.40;11.77;;;14.70;99.90;;;;;;4954187;29;20027;-76
2024/04/01 03:43:03;;;;;;;62.10;11.13;;;14.70;99.90;;;;;;4954167;29;20056;-76
2024/04/01 03:45:29;;;;;;;53.53;10.63;;;14.70;99.90;;;;;;4954158;28;20023;-76
2024/04/01 03:47:54;;;;;;;52.28;8.90;;;14.70;99.90;;;;;;4954254;29;20039;-76
2024/04/01 03:50:20;;;;;;;65.70;9.88;;;14.70;99.90;;;;;;4936980;29;20335;-76
2024/04/01 03:52:46;;;;;;;64.78;10.93;;;14.60;99.90;;;;;;4953976;29;20549;-76
2024/04/01 03:55:11;;;;;;;61.13;10.68;;;14.60;99.90;;;;;;4953757;29;20021;-76
2024/04/01 03:57:37;;;;;;;63.63;11.48;;;14.60;99.90;;;;;;4953960;29;20279;-76
2024/04/01 04:00:04;;;;;;;51.88;10.00;;;14.60;99.90;;;;;;4953885;29;20035;-76
2024/04/01 04:02:29;;;;;;;46.83;8.93;;;14.60;99.90;;;;;;4953882;29;20115;-76
2024/04/01 04:04:55;;;;;;;53.42;10.43;;;14.60;99.90;;;;;;4953725;29;20110;-75
2024/04/01 04:07:21;;;;;;;63.25;10.98;;;14.50;99.90;;;;;;4953726;29;20062;-75
2024/04/01 04:09:48;;;;;;;69.50;12.68;;;14.40;99.90;;;;;;4953729;29;20042;-76
2024/04/01 04:12:13;;;;;;;61.58;10.32;;;14.40;99.90;;;;;;4953574;29;20023;-76
2024/04/01 04:14:39;;;;;;;75.35;10.20;;;14.30;99.90;;;;;;4952071;29;20038;-76
2024/04/01 04:17:05;;;;;;;59.80;11.68;;;14.30;99.90;;;;;;4953320;29;20066;-76
2024/04/01 04:19:30;;;;;;;62.55;11.07;;;14.30;99.90;;;;;;4953410;29;20035;-76
2024/04/01 04:21:56;;;;;;;73.55;11.77;;;14.30;99.90;;;;;;4953396;29;20522;-76
2024/04/01 04:24:25;;;;;;;56.63;10.35;;;14.30;99.90;;;;;;4950457;29;20456;-76
2024/04/01 04:26:52;;;;;;;57.55;10.25;;;14.30;99.90;;;;;;4953389;29;20023;-76
2024/04/01 04:29:18;;;;;;;57.70;10.35;;;14.20;99.90;;;;;;4950746;29;20122;-76
2024/04/01 04:31:54;;;;;;;50.63;10.25;;;14.30;99.90;;;;;;4953289;29;20034;-76
2024/04/01 04:34:23;;;;;;;61.65;10.13;;;14.30;99.90;;;;;;4953094;29;20403;-75
2024/04/01 04:36:49;;;;;;;69.90;11.90;;;14.20;99.90;;;;;;4935853;29;20635;-76
2024/04/01 04:39:24;;;;;;;57.38;9.43;;;14.20;99.90;;;;;;4953180;29;20023;-76
2024/04/01 04:41:54;;;;;;;61.42;11.70;;;14.20;99.90;;;;;;4953031;28;20038;-76
2024/04/01 04:44:20;;;;;;;54.42;9.23;;;14.20;99.90;;;;;;4952971;28;20035;-76
2024/04/01 04:46:46;;;;;;;71.68;10.63;;;14.20;99.90;;;;;;4953083;29;20027;-76
2024/04/01 04:49:12;;;;;;;52.65;9.15;;;14.20;99.90;;;;;;4953013;29;20451;-76
2024/04/01 04:51:38;;;;;;;57.40;10.00;;;14.20;99.90;;;;;;4952835;29;20023;-76
2024/04/01 04:54:04;;;;;;;66.55;11.45;;;14.20;99.90;;;;;;4951040;28;20027;-76
2024/04/01 04:56:30;;;;;;;62.83;10.13;;;14.20;99.90;;;;;;4952709;29;20023;-76
2024/04/01 04:58:56;;;;;;;64.85;10.77;;;14.20;99.90;;;;;;4952932;29;20030;-76
2024/04/01 05:01:23;;;;;;;67.15;11.65;;;14.20;99.90;;;;;;4952884;29;20024;-76
2024/04/01 05:03:48;;;;;;;54.45;10.63;;;14.10;99.90;;;;;;4952875;29;20122;-76
2024/04/01 05:06:14;;;;;;;52.60;12.05;;;14.10;99.90;;;;;;4951686;29;20159;-76
2024/04/01 05:08:40;;;;;;;59.08;10.98;;;14.10;99.90;;;;;;4952862;29;20498;-76
2024/04/01 05:11:08;;;;;;;67.75;10.85;;;14.10;99.90;;;;;;4952469;28;20114;-76
2024/04/01 05:13:35;;;;;;;65.43;12.40;;;14.10;99.90;;;;;;4935357;29;20023;-76
2024/04/01 05:16:03;;;;;;;69.85;12.68;;;14.10;99.90;;;;;;4952859;29;20023;-76
2024/04/01 05:18:28;;;;;;;53.03;9.27;;;14.10;99.90;;;;;;4952876;29;20051;-76
2024/04/01 05:20:54;;;;;;;71.22;12.18;;;14.10;99.90;;;;;;4952688;28;20123;-76
2024/04/01 05:23:20;;;;;;;65.22;10.88;;;14.10;99.90;;;;;;4951064;28;20614;-76
2024/04/01 05:25:46;;;;;;;69.78;11.57;;;14.10;99.90;;;;;;4952682;29;20102;-76
2024/04/01 05:28:12;;;;;;;74.57;12.32;;;14.10;99.90;;;;;;4951351;29;20047;-76
2024/04/01 05:30:37;;;;;;;66.07;10.38;;;14.10;99.90;;;;;;4935222;29;20043;-76
2024/04/01 05:33:03;;;;;;;56.20;10.68;;;14.10;99.90;;;;;;4952718;29;20049;-76
2024/04/01 05:35:33;;;;;;;63.53;11.35;;;14.00;99.90;;;;;;4952402;29;20038;-76
2024/04/01 05:37:59;;;;;;;61.42;11.85;;;14.00;99.90;;;;;;4952417;29;20033;-76
2024/04/01 05:40:26;;;;;;;62.00;12.18;;;14.00;99.90;;;;;;4952468;29;20240;-76
2024/04/01 05:42:52;;;;;;;66.78;11.40;;;14.00;99.90;;;;;;4952491;29;20111;-76
2024/04/01 05:45:18;;;;;;;48.75;9.77;;;14.00;99.90;;;;;;4952526;29;20466;-76
2024/04/01 05:47:43;;;;;;;68.95;11.30;;;14.00;99.90;;;;;;4952680;29;20051;-76
2024/04/01 05:50:09;;;;;;;49.60;11.02;;;14.00;99.90;;;;;;4948639;29;20059;-76
2024/04/01 05:52:35;;;;;;;63.58;11.50;;;14.00;99.90;;;;;;4952068;29;20037;-76
2024/04/01 05:55:02;;;;;;;69.53;13.05;;;14.00;99.90;;;;;;4952536;28;20119;-76
2024/04/01 05:57:28;;;;;;;64.68;12.52;;;14.00;99.90;;;;;;4954448;29;20063;-76
2024/04/01 05:59:56;;;;;;;61.13;10.88;;;14.00;99.90;;;;;;4956068;28;20106;-76
2024/04/01 06:02:22;;;;;;;74.82;11.13;;;14.00;99.90;;;;;;4954451;29;20031;-76
2024/04/01 06:04:48;;;;;;;69.90;11.15;;;14.00;99.90;;;;;;4955716;29;20019;-76
2024/04/01 06:07:14;;;;;;;58.97;11.10;;;14.00;99.90;;;;;;4954499;29;20388;-76
2024/04/01 06:09:40;;;;;;;77.70;13.10;;;14.00;99.90;;;;;;4955836;29;20031;-76
2024/04/01 06:12:08;;;;;;;57.90;11.18;;;14.10;99.90;;;;;;4954376;29;20051;-76
2024/04/01 06:14:34;;;;;;;63.40;12.30;;;14.10;99.90;;;;;;4955648;29;20034;-76
2024/04/01 06:16:59;;;;;;;71.80;12.20;;;14.10;99.90;;;;;;4953673;29;20020;-76
2024/04/01 06:19:25;;;;;;;63.95;11.50;;;14.10;99.90;;;;;;4954269;28;20031;-76
2024/04/01 06:21:51;;;;;;;68.70;13.23;;;14.10;99.90;;;;;;4955379;29;20027;-76
2024/04/01 06:24:18;;;;;;;60.88;11.35;;;14.10;99.90;;;;;;4955630;28;20549;-76
2024/04/01 06:26:44;;;;;;;65.15;11.50;;;14.10;99.90;;;;;;4951672;29;20034;-76
2024/04/01 06:29:12;;;;;;;59.97;11.82;;;14.10;99.90;;;;;;4937944;29;20380;-76
2024/04/01 06:31:38;;;;;;;59.10;11.38;;;14.10;99.90;;;;;;4955181;29;20476;-76
2024/04/01 06:34:03;;;;;;;58.92;10.77;;;14.10;99.90;;;;;;4955248;29;20034;-76
2024/04/01 06:36:31;;;;;;;64.57;11.38;;;14.10;99.90;;;;;;4954608;29;20398;-76
2024/04/01 06:38:57;;;;;;;55.47;10.52;;;14.10;99.90;;;;;;4954085;28;20011;-76
2024/04/01 06:41:26;;;;;;;61.47;11.68;;;14.10;99.90;;;;;;4955247;29;20034;-75
2024/04/01 06:43:52;;;;;;;66.28;10.63;;;14.10;99.90;;;;;;4955082;29;20110;-76
2024/04/01 06:46:17;;;;;;;59.28;11.25;;;14.10;99.90;;;;;;4955291;29;20159;-76
2024/04/01 06:48:43;;;;;;;63.45;13.10;;;14.10;99.90;;;;;;4955130;29;20034;-76
2024/04/01 06:51:09;;;;;;;59.35;11.07;;;14.10;99.90;;;;;;4953791;29;20035;-76
2024/04/01 06:53:35;;;;;;;56.03;10.65;;;14.10;99.90;;;;;;4954769;29;20023;-76
2024/04/01 06:56:00;;;;;;;59.83;10.45;;;14.10;99.90;;;;;;4954921;29;20483;-76
2024/04/01 06:58:26;;;;;;;65.40;11.40;;;14.10;99.90;;;;;;4954924;29;20023;-76
2024/04/01 07:00:52;;;;;;;60.17;10.43;;;14.10;99.90;;;;;;4954871;29;20023;-76
2024/04/01 07:03:17;;;;;;;61.38;11.10;;;14.00;99.90;;;;;;4950612;29;20028;-76
2024/04/01 07:05:43;;;;;;;71.22;12.98;;;14.10;99.90;;;;;;4953130;29;20508;-76
2024/04/01 07:08:09;;;;;;;52.67;11.00;;;14.00;99.90;;;;;;4953092;28;20031;-76
2024/04/01 07:10:35;;;;;;;58.75;11.10;;;14.00;99.90;;;;;;4954631;29;20027;-75
2024/04/01 07:13:01;;;;;;;56.35;10.55;;;14.00;99.90;;;;;;4954444;29;20027;-76
2024/04/01 07:15:26;;;;;;;59.00;12.75;;;14.00;99.90;;;;;;4936240;29;20114;-76
2024/04/01 07:17:55;;;;;;;51.65;10.57;;;14.00;99.90;;;;;;4953182;29;20118;-76
2024/04/01 07:20:20;;;;;;;60.97;11.63;;;14.00;99.90;;;;;;4953029;29;20082;-76
2024/04/01 07:22:48;;;;;;;56.22;11.48;;;14.10;99.90;;;;;;4954235;29;20031;-76
2024/04/01 07:25:14;;;;;;;48.47;11.82;;;14.10;99.90;;;;;;4954209;29;20483;-76
2024/04/01 07:27:39;;;;;;;50.13;9.70;;;14.10;99.90;;;;;;4954340;29;20094;-76
2024/04/01 07:30:07;;;;;;;47.55;10.35;;;14.10;99.90;;;;;;4954146;29;20055;-76
2024/04/01 07:32:37;;;;;;;57.33;11.35;;;14.10;99.90;;;;;;4953658;29;20117;-76
2024/04/01 07:35:04;;;;;;;53.00;11.10;;;14.00;99.90;;;;;;4952691;29;20051;-76
2024/04/01 07:37:30;;;;;;;45.58;10.75;;;13.90;99.90;;;;;;4953986;28;20078;-76
2024/04/01 07:39:56;;;;;;;54.75;10.93;;;14.00;99.90;;;;;;4952870;29;20428;-76
2024/04/01 07:42:23;;;;;;;50.38;10.43;;;13.90;99.90;;;;;;4954142;29;20110;-76
2024/04/01 07:44:52;;;;;;;41.33;8.82;;;13.90;99.90;;;;;;4946231;29;20027;-76
2024/04/01 07:47:21;;;;;;;42.63;8.95;;;13.90;99.90;;;;;;4954072;29;20392;-76
2024/04/01 07:49:47;;;;;;;47.85;8.88;;;13.90;99.90;;;;;;4949008;29;20028;-76
2024/04/01 07:52:13;;;;;;;46.90;7.32;;;13.90;99.90;;;;;;4953114;29;20387;-76
2024/04/01 07:54:39;;;;;;;37.55;7.97;;;13.90;99.90;;;;;;4953758;29;20284;-76
2024/04/01 07:57:05;;;;;;;42.85;7.32;;;14.00;99.90;;;;;;4952368;29;20073;-76
2024/04/01 07:59:32;;;;;;;36.47;7.20;;;14.00;99.90;;;;;;4949532;29;20487;-76
2024/04/01 08:02:00;;;;;;;37.88;7.45;;;14.00;99.90;;;;;;4953561;29;20024;-76
2024/04/01 08:04:29;;;;;;;33.03;7.60;;;14.00;99.90;;;;;;4952046;29;20122;-76
2024/04/01 08:06:55;;;;;;;37.85;6.97;;;14.00;99.90;;;;;;4950494;29;20034;-75
2024/04/01 08:09:21;;;;;;;36.25;6.90;;;14.00;99.90;;;;;;4952328;29;20073;-76
2024/04/01 08:11:51;;;;;;;30.83;6.15;;;14.00;99.90;;;;;;4946507;29;20027;-76
2024/04/01 08:14:20;;;;;;;36.05;6.88;;;14.00;99.90;;;;;;4949077;29;20019;-76
2024/04/01 08:16:46;;;;;;;28.23;5.90;;;14.00;99.90;;;;;;4949247;29;20059;-76
2024/04/01 08:19:15;;;;;;;24.88;5.47;;;13.90;99.90;;;;;;4948538;28;20027;-76
2024/04/01 08:21:44;;;;;;;36.83;6.00;;;13.90;99.90;;;;;;4951386;29;20110;-76
2024/04/01 08:24:10;;;;;;;32.22;4.80;;;13.90;99.90;;;;;;4953191;29;20622;-76
2024/04/01 08:26:35;;;;;;;22.60;5.63;;;13.90;99.90;;;;;;4950861;29;20113;-76
2024/04/01 08:29:01;;;;;;;25.95;6.20;;;13.90;99.90;;;;;;4952731;29;20031;-76
2024/04/01 08:31:27;;;;;;;21.52;5.28;;;13.90;99.90;;;;;;4950060;29;20055;-76
2024/04/01 08:33:53;;;;;;;22.10;4.88;;;13.80;99.90;;;;;;4948858;29;20105;-76
2024/04/01 08:36:19;;;;;;;17.40;4.35;;;13.80;99.90;;;;;;4947299;29;20099;-76
2024/04/01 08:38:45;;;;;;;17.77;4.50;;;13.80;99.90;;;;;;4951615;29;20520;-76
2024/04/01 08:41:48;;;;;;;22.42;6.15;;;13.80;99.90;;;;;;4950960;29;20027;-76
2024/04/01 08:44:15;;;;;;;18.73;4.82;;;13.70;99.90;;;;;;4951201;29;20063;-76
2024/04/01 08:46:44;;;;;;;14.52;4.90;;;13.60;99.90;;;;;;4951020;29;20395;-76
2024/04/01 08:49:14;;;;;;;22.33;4.90;;;13.60;99.90;;;;;;4952659;29;20472;-76
2024/04/01 08:51:41;;;;;;;19.85;4.53;;;13.60;99.90;;;;;;4952387;28;20086;-75
2024/04/01 08:54:08;;;;;;;22.67;4.63;;;13.70;99.90;;;;;;4966906;28;20027;-76
2024/04/01 08:56:41;;;;;;;18.27;3.97;;;13.70;99.90;;;;;;4947162;29;20058;-76
2024/04/01 08:59:08;;;;;;;19.42;5.45;;;13.70;99.90;;;;;;4944364;29;20046;-76
2024/04/01 09:01:34;;;;;;;23.15;4.60;;;13.70;99.90;;;;;;4948214;29;20027;-76
2024/04/01 09:04:00;;;;;;;18.25;4.72;;;13.70;99.90;;;;;;4946884;29;21052;-75
2024/04/01 09:06:28;;;;;;;25.77;6.22;;;13.60;99.90;;;;;;4951600;29;20631;-76
2024/04/01 09:08:54;;;;;;;20.85;5.03;;;13.60;99.90;;;;;;4952507;29;20023;-77
2024/04/01 09:11:25;;;;;;;28.83;5.00;;;13.60;99.90;;;;;;4948311;29;20027;-76
2024/04/01 09:13:51;;;;;;;17.13;3.55;;;13.60;99.90;;;;;;4945397;29;20042;-76
2024/04/01 09:16:25;;;;;;;23.17;4.32;;;13.60;99.90;;;;;;4945400;29;20023;-76
2024/04/01 09:18:51;;;;;;;21.85;6.25;;;13.60;99.90;;;;;;4939040;29;20027;-75
2024/04/01 09:21:19;;;;;;;15.63;6.45;;;13.60;99.90;;;;;;4942722;29;20509;-76
2024/04/01 09:23:46;;;;;;;19.00;5.00;;;13.60;99.90;;;;;;4944175;29;20049;-76
2024/04/01 09:26:12;;;;;;;22.45;4.80;;;13.60;99.90;;;;;;4927590;29;20027;-76
2024/04/01 09:28:38;;;;;;;23.80;4.68;;;13.70;99.90;;;;;;4941315;29;20484;-76
2024/04/01 09:31:04;;;;;;;20.35;5.05;;;13.70;99.90;;;;;;4942703;28;20130;-75
2024/04/01 09:33:32;;;;;;;29.00;7.40;;;13.70;99.90;;;;;;4945836;29;20034;-76
2024/04/01 09:35:59;;;;;;;17.17;6.53;;;13.70;99.90;;;;;;4948465;29;20122;-76
2024/04/01 09:38:25;;;;;;;21.02;6.82;;;13.70;99.90;;;;;;4947479;29;20020;-76
2024/04/01 09:40:52;;;;;;;14.30;5.05;;;13.80;99.90;;;;;;4950208;29;20078;-76
2024/04/01 09:43:31;;;;;;;23.17;4.35;;;13.80;99.90;;;;;;4946603;29;20475;-76
2024/04/01 09:46:00;;;;;;;15.57;4.05;;;13.90;99.90;;;;;;4951323;29;20038;-76
2024/04/01 09:48:27;;;;;;;25.08;6.63;;;14.00;99.90;;;;;;4949017;29;20622;-76
2024/04/01 09:50:54;;;;;;;23.17;6.10;;;14.00;99.90;;;;;;4951648;28;20268;-76
2024/04/01 09:53:21;;;;;;;15.25;5.72;;;14.00;99.90;;;;;;4950371;29;20039;-76
2024/04/01 09:56:11;;;;;;;20.35;6.82;;;14.10;99.90;;;;;;4943669;29;20034;-76
2024/04/01 09:58:56;;;;;;;26.77;6.63;;;14.20;99.90;;;;;;4942564;29;20031;-76
2024/04/01 10:01:55;;;;;;;15.27;5.32;;;14.20;99.90;;;;;;4958764;28;20479;-76
2024/04/01 10:04:21;;;;;;;29.23;4.85;;;14.30;99.90;;;;;;4949514;29;20035;-77
2024/04/01 10:07:14;;;;;;;20.80;4.70;;;14.30;99.90;;;;;;4946890;29;20023;-77
2024/04/01 10:09:54;;;;;;;16.75;4.68;;;14.30;99.90;;;;;;4946713;29;20311;-77
2024/04/01 10:12:38;;;;;;;24.73;6.40;;;14.40;99.90;;;;;;4951623;29;20035;-77
2024/04/01 10:15:49;;;;;;;25.63;7.03;;;14.50;99.90;;;;;;4950216;29;20498;-77
2024/04/01 10:18:14;;;;;;;24.83;7.38;;;14.60;99.90;;;;;;4931452;29;20383;-76
2024/04/01 10:21:15;;;;;;;26.98;7.60;;;14.70;99.90;;;;;;4947561;29;20031;-77
2024/04/01 10:23:59;;;;;;;15.77;5.72;;;14.70;99.90;;;;;;4947688;28;20039;-77
2024/04/01 10:26:43;;;;;;;25.00;6.70;;;14.80;99.90;;;;;;4947075;29;21009;-76
2024/04/01 10:29:24;;;;;;;22.45;6.50;;;14.80;99.90;;;;;;4966053;28;20051;-76
2024/04/01 10:31:52;;;;;;;21.67;6.10;;;14.80;99.90;;;;;;4953603;29;20460;-77
2024/04/01 10:35:09;;;;;;;18.75;4.18;;;14.90;99.90;;;;;;4950541;29;20502;-79
2024/04/01 10:37:58;;;;;;;15.25;5.70;;;15.00;99.90;;;;;;4946208;29;20364;-78
2024/04/01 10:40:44;;;;;;;22.75;7.32;;;15.00;99.90;;;;;;4946347;29;20448;-76
2024/04/01 10:43:43;;;;;;;22.10;7.00;;;15.10;99.90;;;;;;4949343;28;20046;-76
2024/04/01 10:46:31;;;;;;;22.55;6.13;;;15.10;99.90;;;;;;4947370;29;20036;-76
2024/04/01 10:49:31;;;;;;;18.88;6.10;;;15.20;99.90;;;;;;4949160;29;20027;-76
2024/04/01 10:52:05;;;;;;;28.17;9.70;;;15.30;99.90;;;;;;4948698;29;20652;-76
2024/04/01 10:55:01;;;;;;;20.13;6.15;;;15.30;99.90;;;;;;4949313;29;20031;-76
2024/04/01 10:57:51;;;;;;;25.73;5.70;;;15.30;99.90;;;;;;4964296;28;20047;-76
2024/04/01 11:00:38;;;;;;;23.00;5.88;;;15.30;99.90;;;;;;4962060;28;20030;-78
2024/04/01 11:03:31;;;;;;;22.80;5.90;;;15.30;99.90;;;;;;4945226;29;20303;-78
2024/04/01 11:06:10;;;;;;;19.88;5.93;;;15.30;99.90;;;;;;4945485;29;20518;-76
2024/04/01 11:08:47;;;;;;;24.23;6.95;;;15.40;99.90;;;;;;4961513;28;20447;-76
2024/04/01 11:11:12;;;;;;;23.90;6.80;;;15.40;99.90;;;;;;4949158;29;20086;-76
2024/04/01 11:13:39;;;;;;;20.33;6.88;;;15.40;99.90;;;;;;4947354;29;20031;-76
2024/04/01 11:16:07;;;;;;;18.90;6.45;;;15.50;99.90;;;;;;4948602;29;20023;-76
2024/04/01 11:18:55;;;;;;;34.30;16.20;;;15.50;99.90;;;;;;4950051;29;20023;-76
2024/04/01 11:21:53;;;;;;;14.07;5.43;;;15.40;99.90;;;;;;4947380;29;20027;-76
2024/04/01 11:24:30;;;;;;;16.25;3.90;;;15.40;99.90;;;;;;4943838;29;20028;-76
2024/04/01 11:27:09;;;;;;;9.75;2.47;;;15.40;99.90;;;;;;4948892;29;20035;-76
2024/04/01 11:30:12;;;;;;;14.80;3.58;;;15.30;99.90;;;;;;4949713;29;20051;-76
2024/04/01 11:32:41;;;;;;;8.73;2.78;;;15.40;99.90;;;;;;4960439;28;20518;-76
2024/04/01 11:35:15;;;;;;;17.60;4.60;;;15.40;99.90;;;;;;4944638;29;20075;-76
2024/04/01 11:37:47;;;;;;;10.00;4.25;;;15.40;99.90;;;;;;4949323;29;20172;-76
2024/04/01 11:40:16;;;;;;;23.40;7.65;;;15.40;99.90;;;;;;4953900;29;20030;-76
2024/04/01 11:42:46;;;;;;;20.58;8.57;;;15.40;99.90;;;;;;4952513;29;20035;-76
2024/04/01 11:45:16;;;;;;;16.08;8.40;;;15.40;99.90;;;;;;4954131;29;20042;-77
2024/04/01 11:47:43;;;;;;;26.38;13.15;;;15.50;99.90;;;;;;4952386;29;20027;-77
2024/04/01 11:50:19;;;;;;;37.28;16.08;;;15.50;99.90;;;;;;4947205;29;20487;-76
2024/04/01 11:53:03;;;;;;;18.88;10.65;;;15.50;99.90;;;;;;4948571;28;20042;-76
2024/04/01 11:55:30;;;;;;;8.70;5.90;;;15.50;99.90;;;;;;4946383;28;20023;-76
2024/04/01 11:58:12;;;;;;;9.18;4.97;;;15.50;99.90;;;;;;4949932;29;20027;-76
2024/04/01 12:00:52;;;;;;;7.50;3.33;;;15.60;99.90;;;;;;4949767;28;20027;-76
2024/04/01 12:03:23;;;;;;;9.10;3.45;;;15.60;99.90;;;;;;4944689;29;20058;-76
2024/04/01 12:05:50;;;;;;;11.60;5.18;;;15.60;99.90;;;;;;4946583;29;20533;-76
2024/04/01 12:08:19;;;;;;;10.77;3.72;;;15.60;99.90;;;;;;4947570;29;20050;-76
2024/04/01 12:10:46;;;;;;;13.00;4.25;;;15.60;99.90;;;;;;4947548;29;20095;-76
2024/04/01 12:13:16;;;;;;;11.23;5.72;;;15.60;99.90;;;;;;4948937;29;20086;-76
2024/04/01 12:15:45;;;;;;;15.48;6.32;;;15.60;99.90;;;;;;4947351;29;20106;-77
2024/04/01 12:18:16;;;;;;;16.55;4.65;;;15.70;99.90;;;;;;4945881;29;20020;-77
2024/04/01 12:20:42;;;;;;;14.68;5.32;;;15.70;99.90;;;;;;4952655;29;20019;-76
2024/04/01 12:23:10;;;;;;;16.48;7.93;;;15.60;99.90;;;;;;4953493;29;20038;-76
2024/04/01 12:25:36;;;;;;;14.13;5.95;;;15.60;99.90;;;;;;4952025;29;20060;-76
2024/04/01 12:28:07;;;;;;;8.57;3.67;;;15.60;99.90;;;;;;4952629;28;20027;-76
2024/04/01 12:30:37;;;;;;;11.05;4.38;;;15.60;99.90;;;;;;4953043;29;20094;-77
2024/04/01 12:33:05;;;;;;;11.73;3.47;;;15.60;99.90;;;;;;4953090;29;20090;-76
2024/04/01 12:35:32;;;;;;;16.65;4.72;;;15.60;99.90;;;;;;4953213;29;20031;-76
2024/04/01 12:38:03;;;;;;;6.25;4.10;;;15.60;99.90;;;;;;4953112;29;20027;-76
2024/04/01 12:40:50;;;;;;;7.90;2.90;;;15.60;99.90;;;;;;4953142;29;20021;-76
2024/04/01 12:43:16;;;;;;;12.25;3.70;;;15.60;99.90;;;;;;4952586;29;20061;-76